Durham, New Hampshire
Current Conditions -  °F | °C
As of 5:58 AM on Tuesday 21 Oct 2014 (Local Time) from KPSM Reporting Station
Broken Clouds Broken Clouds  
Wind Chill:   Ceiling: 12000
Heat Index:   Visibility: 10mi
Dew Point:   Wind: 2mph
Humidity: 78%   Direction: 50°NE
Pressure: 29.99"   Gusts: NA
Location:  43.13°N, 70.92°W
Report Text: KPSM 210958Z 05002KT 10SM SCT050 BKN120 08/04 A2999 RMK AO2A SLP159 T00790042
Loading
Personal Weather Stations






























Interactive Weather Map
Tropical Storm Tracking
New forecast layout! Learn more

10-Day Weather Forecast

Advertisements
Track Severe Weather on mobile